Time;durP1;ratioP1;P1;durP2;ratioP2;P2;SDS_P1;SDS_P2;PMS_P1;PMS_P2;Temp;Humidity;BMP_temperature;BMP_pressure;BME280_temperature;BME280_humidity;BME280_pressure;Samples;Min_cycle;Max_cycle;Signal;HPM_P1;HPM_P2
2023/10/14 00:00:47;;;;;;;0.65;0.25;;;;;;;14.81;100.00;100369.38;4994138;28;97572;-27
2023/10/14 00:03:32;;;;;;;0.73;0.20;;;;;;;14.81;100.00;100373.97;4993204;28;96564;-28
2023/10/14 00:06:00;;;;;;;3.83;0.38;;;;;;;14.88;100.00;100377.03;4994469;28;96743;-27
2023/10/14 00:08:28;;;;;;;1.30;0.45;;;;;;;14.88;100.00;100379.75;4992647;28;101033;-27
2023/10/14 00:10:54;;;;;;;0.25;0.20;;;;;;;14.88;100.00;100396.97;4992223;28;100853;-28
2023/10/14 00:13:19;;;;;;;0.43;0.30;;;;;;;14.89;100.00;100397.84;4995266;28;96581;-28
2023/10/14 00:15:45;;;;;;;0.52;0.20;;;;;;;14.86;100.00;100394.38;4996364;28;96883;-28
2023/10/14 00:18:13;;;;;;;0.63;0.10;;;;;;;14.79;100.00;100404.09;4995734;28;101311;-27
2023/10/14 00:20:39;;;;;;;0.40;0.20;;;;;;;14.81;100.00;100421.19;4997162;28;99297;-28
2023/10/14 00:23:05;;;;;;;0.85;0.13;;;;;;;14.79;100.00;100436.81;4996166;28;96791;-27
2023/10/14 00:25:34;;;;;;;1.58;0.35;;;;;;;14.80;100.00;100437.66;4997563;28;96826;-27
2023/10/14 00:28:06;;;;;;;1.20;0.38;;;;;;;14.79;100.00;100444.97;4997206;28;98086;-27
2023/10/14 00:30:31;;;;;;;0.20;0.10;;;;;;;14.76;100.00;100449.84;4996310;28;100798;-28
2023/10/14 00:32:57;;;;;;;1.80;0.30;;;;;;;14.68;100.00;100453.22;4997197;28;96696;-28
2023/10/14 00:35:24;;;;;;;0.20;0.10;;;;;;;14.70;100.00;100467.56;4997506;28;96822;-27
2023/10/14 00:37:52;;;;;;;2.13;0.32;;;;;;;14.72;100.00;100475.63;4996429;28;97991;-29
2023/10/14 00:40:24;;;;;;;1.08;0.50;;;;;;;14.65;100.00;100467.09;4996930;28;98280;-28
2023/10/14 00:42:51;;;;;;;0.90;0.50;;;;;;;14.73;100.00;100480.06;4995918;28;96766;-28
2023/10/14 00:45:20;;;;;;;0.95;0.38;;;;;;;14.72;100.00;100498.31;4994879;28;97001;-27
2023/10/14 00:47:48;;;;;;;2.42;0.40;;;;;;;14.71;100.00;100499.31;4996547;28;97981;-28
2023/10/14 00:50:58;;;;;;;1.40;0.40;;;;;;;14.70;100.00;100497.56;4995376;28;101064;-28
2023/10/14 00:53:05;;;;;;;3.75;0.65;;;;;;;14.65;100.00;100499.81;4993549;28;96787;-28
2023/10/14 00:55:53;;;;;;;2.35;0.50;;;;;;;14.60;100.00;100494.75;4996041;28;96862;-27
2023/10/14 00:58:23;;;;;;;0.63;0.35;;;;;;;14.57;100.00;100511.38;4996825;28;98543;-27
2023/10/14 01:00:58;;;;;;;1.33;0.68;;;;;;;14.56;100.00;100522.41;4995040;28;101083;-27
2023/10/14 01:03:31;;;;;;;1.10;0.52;;;;;;;14.49;100.00;100519.31;4995095;28;96714;-28
2023/10/14 01:06:21;;;;;;;0.80;0.32;;;;;;;14.51;100.00;100522.75;4996796;28;96699;-28
2023/10/14 01:08:52;;;;;;;4.03;0.60;;;;;;;14.36;99.47;100527.63;4996810;28;97509;-28
2023/10/14 01:11:18;;;;;;;;;;;;;;;14.40;99.30;100539.16;4995382;28;100706;-28
2023/10/14 01:13:47;;;;;;;2.40;0.70;;;;;;;14.34;99.85;100550.53;4997093;28;96591;-28
2023/10/14 01:16:12;;;;;;;0.85;0.40;;;;;;;14.31;99.65;100545.34;4995388;28;96825;-28
2023/10/14 01:18:44;;;;;;;2.03;0.88;;;;;;;14.19;98.05;100548.06;4994863;28;99136;-27
2023/10/14 01:21:09;;;;;;;5.05;0.60;;;;;;;14.24;98.46;100564.03;4995452;28;100460;-27
2023/10/14 01:23:38;;;;;;;1.60;0.57;;;;;;;14.18;98.16;100576.31;4995562;28;96548;-27
2023/10/14 01:26:09;;;;;;;1.35;0.52;;;;;;;14.16;97.91;100574.72;4996690;28;96793;-28
2023/10/14 01:28:42;;;;;;;2.05;0.50;;;;;;;14.06;96.77;100576.44;4994462;28;100942;-27
2023/10/14 01:31:34;;;;;;;1.60;0.40;;;;;;;14.05;97.16;100586.47;4996134;28;99344;-28
2023/10/14 01:34:05;;;;;;;1.80;0.43;;;;;;;13.96;96.40;100579.88;4995306;28;96710;-27
2023/10/14 01:36:37;;;;;;;1.90;0.55;;;;;;;13.86;96.37;100581.63;4995060;28;96871;-28
2023/10/14 01:39:09;;;;;;;2.55;0.90;;;;;;;13.77;93.91;100583.22;4994555;28;101265;-28
2023/10/14 01:41:34;;;;;;;2.63;0.30;;;;;;;13.77;94.45;100591.38;4994824;28;100794;-28
2023/10/14 01:44:03;;;;;;;2.15;0.63;;;;;;;13.72;93.79;100601.78;4994791;28;97382;-27
2023/10/14 01:46:30;;;;;;;3.03;0.52;;;;;;;13.68;93.94;100613.91;4994947;28;96823;-28
2023/10/14 01:48:55;;;;;;;1.15;0.43;;;;;;;13.63;93.43;100613.38;4995614;28;99606;-28
2023/10/14 01:51:21;;;;;;;3.72;0.90;;;;;;;13.60;92.85;100606.31;4995660;28;99469;-27
2023/10/14 01:53:46;;;;;;;4.68;0.85;;;;;;;13.62;93.36;100622.53;4995707;28;96732;-28
2023/10/14 01:56:12;;;;;;;3.05;0.77;;;;;;;13.57;92.65;100616.59;4995891;28;96813;-28
2023/10/14 01:58:37;;;;;;;1.35;0.70;;;;;;;13.57;92.69;100622.91;4995826;28;97886;-27
2023/10/14 02:01:12;;;;;;;4.25;0.80;;;;;;;13.50;92.45;100627.06;4995615;28;99134;-28
2023/10/14 02:03:50;;;;;;;1.52;0.60;;;;;;;13.48;91.68;100648.09;4994618;28;96525;-29
2023/10/14 02:06:18;;;;;;;2.00;0.50;;;;;;;13.44;91.69;100657.47;4995999;28;96659;-28
2023/10/14 02:08:44;;;;;;;0.28;0.13;;;;;;;13.38;91.67;100649.78;4994094;28;100875;-28
2023/10/14 02:11:10;;;;;;;1.35;0.30;;;;;;;13.35;91.01;100653.63;4994545;28;101107;-28
2023/10/14 02:13:36;;;;;;;1.27;0.30;;;;;;;13.36;91.93;100666.22;4996043;28;96647;-27
2023/10/14 02:16:08;;;;;;;2.20;0.57;;;;;;;13.36;91.71;100674.38;4995512;28;96796;-28
2023/10/14 02:18:36;;;;;;;1.95;0.63;;;;;;;13.24;91.17;100675.28;4995042;28;97577;-28
2023/10/14 02:21:07;;;;;;;1.40;0.40;;;;;;;13.13;91.68;100665.25;4993990;28;101513;-27
2023/10/14 02:23:49;;;;;;;3.33;0.38;;;;;;;13.14;90.71;100679.69;4995671;28;96749;-29
2023/10/14 02:26:25;;;;;;;1.20;0.28;;;;;;;13.09;89.62;100690.91;4994147;28;96668;-27
2023/10/14 02:28:54;;;;;;;1.08;0.50;;;;;;;13.14;90.19;100705.03;4995477;28;97986;-28
2023/10/14 02:33:57;;;;;;;1.23;0.20;;;;;;;13.09;89.70;100709.94;4994774;28;96578;-28
2023/10/14 02:36:29;;;;;;;2.30;0.52;;;;;;;13.04;89.90;100717.59;4995504;28;96741;-29
2023/10/14 02:38:55;;;;;;;1.80;0.43;;;;;;;13.10;90.14;100735.28;4993506;28;101001;-27
2023/10/14 02:41:26;;;;;;;2.00;0.35;;;;;;;13.04;89.59;100733.00;4977152;28;101006;-28
2023/10/14 02:46:54;;;;;;;1.60;0.25;;;;;;;13.03;89.66;100739.44;4994649;28;96730;-28
2023/10/14 02:49:24;;;;;;;1.85;0.40;;;;;;;12.98;89.41;100752.50;4994662;28;99373;-28
2023/10/14 02:51:51;;;;;;;2.33;0.55;;;;;;;12.99;89.52;100752.41;4993380;28;100084;-27
2023/10/14 02:54:33;;;;;;;5.32;1.13;;;;;;;12.98;89.29;100768.84;4995229;28;96630;-27
2023/10/14 02:57:00;;;;;;;1.95;0.30;;;;;;;12.94;89.43;100760.00;4993790;28;96805;-29
2023/10/14 02:59:43;;;;;;;1.60;0.65;;;;;;;12.94;89.72;100762.72;4993258;28;101020;-28
2023/10/14 03:04:55;;;;;;;1.63;0.40;;;;;;;12.88;87.50;100776.78;4995013;28;96634;-30
2023/10/14 03:07:48;;;;;;;3.15;0.47;;;;;;;12.85;86.93;100787.88;4995146;28;96711;-28
2023/10/14 03:10:20;;;;;;;1.48;0.40;;;;;;;12.82;88.09;100799.81;4994129;28;99414;-28
2023/10/14 03:12:49;;;;;;;;;;;;;;;12.79;86.89;100810.06;4995261;28;97875;-28
2023/10/14 03:15:19;;;;;;;2.85;0.40;;;;;;;12.77;87.73;100803.88;4993688;28;96588;-28
2023/10/14 03:18:04;;;;;;;2.97;0.60;;;;;;;12.79;86.72;100819.09;4993460;28;96874;-28
2023/10/14 03:20:34;;;;;;;2.88;0.57;;;;;;;12.77;87.52;100817.44;4992886;28;101302;-28
2023/10/14 03:23:09;;;;;;;2.17;0.40;;;;;;;12.81;87.80;100829.84;4993238;28;101352;-28
2023/10/14 03:25:35;;;;;;;1.35;0.52;;;;;;;12.76;87.10;100835.63;4993531;28;96575;-28
2023/10/14 03:28:08;;;;;;;0.88;0.15;;;;;;;12.80;86.62;100844.41;4995106;28;96545;-28
2023/10/14 03:30:37;;;;;;;2.28;0.70;;;;;;;12.80;86.85;100849.84;4992951;28;100740;-27
2023/10/14 03:33:09;;;;;;;3.20;0.30;;;;;;;12.80;87.20;100844.41;4992810;28;101251;-27
2023/10/14 03:35:34;;;;;;;0.82;0.30;;;;;;;12.77;86.88;100844.63;4992959;28;96741;-27
2023/10/14 03:38:05;;;;;;;4.90;0.47;;;;;;;12.78;86.55;100840.97;4994813;28;96754;-28
2023/10/14 03:43:18;;;;;;;4.05;0.50;;;;;;;12.69;86.64;100848.75;4993910;28;98109;-28
2023/10/14 03:46:04;;;;;;;0.95;0.20;;;;;;;12.67;86.06;100853.44;4994047;28;96572;-28
2023/10/14 03:48:54;;;;;;;1.83;0.43;;;;;;;12.67;87.27;100869.75;4996241;28;96738;-28
2023/10/14 03:51:24;;;;;;;1.75;0.47;;;;;;;12.71;86.62;100871.28;4997331;28;98822;-28
2023/10/14 03:53:57;;;;;;;3.10;0.50;;;;;;;12.71;86.98;100879.44;4998014;28;97413;-27
2023/10/14 03:56:27;;;;;;;2.00;0.50;;;;;;;12.66;85.90;100865.28;4996593;28;96571;-27
2023/10/14 03:58:58;;;;;;;3.25;0.57;;;;;;;12.70;86.31;100882.25;4996350;28;97598;-28
2023/10/14 04:01:29;;;;;;;1.73;0.30;;;;;;;12.70;86.53;100891.28;4979355;28;101193;-27
2023/10/14 04:03:55;;;;;;;2.00;0.57;;;;;;;12.71;86.46;100889.44;4996297;28;101634;-27
2023/10/14 04:06:21;;;;;;;1.08;0.45;;;;;;;12.71;86.40;100893.03;4997699;28;96875;-28
2023/10/14 04:08:49;;;;;;;4.00;0.85;;;;;;;12.69;86.46;100891.38;4996636;28;96912;-28
2023/10/14 04:11:17;;;;;;;2.00;0.35;;;;;;;12.67;86.40;100904.22;4997575;28;97928;-28
2023/10/14 04:13:58;;;;;;;3.75;0.60;;;;;;;12.58;86.62;100911.13;4995909;28;101296;-29
2023/10/14 04:17:09;;;;;;;0.90;0.38;;;;;;;12.60;86.60;100914.63;4996390;28;96645;-28
2023/10/14 04:19:27;;;;;;;6.40;0.60;;;;;;;12.64;86.99;100920.75;4996327;28;96847;-29
2023/10/14 04:22:03;;;;;;;3.72;0.57;;;;;;;12.62;87.16;100926.25;4997133;28;99861;-28
2023/10/14 04:24:45;;;;;;;2.80;0.60;;;;;;;12.62;86.96;100928.97;4995760;28;100967;-28
2023/10/14 04:27:17;;;;;;;1.20;0.50;;;;;;;12.59;87.00;100928.34;4996631;28;96804;-27
2023/10/14 04:32:42;;;;;;;3.05;0.60;;;;;;;12.60;85.76;100946.38;4985365;28;96780;-27
2023/10/14 04:35:08;;;;;;;0.73;0.32;;;;;;;12.59;86.55;100953.66;4997114;28;99747;-27
2023/10/14 04:37:54;;;;;;;1.40;0.40;;;;;;;12.56;86.66;100953.88;4995909;28;96734;-28
2023/10/14 04:40:37;;;;;;;2.65;0.60;;;;;;;12.60;85.97;100966.25;4996946;28;96936;-29
2023/10/14 04:43:19;;;;;;;0.22;0.17;;;;;;;12.53;85.57;100967.66;4996935;28;99463;-28
2023/10/14 04:45:52;;;;;;;4.38;0.60;;;;;;;12.53;85.96;100973.09;4996810;28;97951;-28
2023/10/14 04:48:35;;;;;;;0.88;0.25;;;;;;;12.51;85.27;100969.59;4994872;28;96861;-28
2023/10/14 04:51:15;;;;;;;1.33;0.38;;;;;;;12.49;85.64;100983.31;4994963;28;96741;-33
2023/10/14 04:53:43;;;;;;;0.80;0.30;;;;;;;12.50;85.46;100990.47;4994790;28;100967;-27
2023/10/14 04:56:09;;;;;;;2.35;0.43;;;;;;;12.45;85.97;100980.91;4995020;28;101592;-28
2023/10/14 04:58:40;;;;;;;5.63;0.80;;;;;;;12.43;85.60;100993.72;4995310;28;96576;-27
2023/10/14 05:01:09;;;;;;;4.88;0.93;;;;;;;12.41;85.87;100993.81;4995737;28;96783;-28
2023/10/14 05:03:34;;;;;;;2.10;0.65;;;;;;;12.40;85.94;101000.22;4995248;28;101127;-29
2023/10/14 05:06:17;;;;;;;0.75;0.28;;;;;;;12.33;85.72;100997.03;4996590;28;98120;-28
2023/10/14 05:08:47;;;;;;;1.17;0.25;;;;;;;12.36;84.86;101023.13;4995585;28;96717;-28
2023/10/14 05:11:14;;;;;;;4.10;0.65;;;;;;;12.30;84.58;101009.97;4995862;28;96926;-27
2023/10/14 05:13:42;;;;;;;1.77;0.60;;;;;;;12.36;84.38;101027.69;4995051;28;101443;-29
2023/10/14 05:16:26;;;;;;;4.13;0.65;;;;;;;12.37;83.92;101029.41;4995039;28;100807;-28
2023/10/14 05:19:06;;;;;;;3.85;0.50;;;;;;;12.30;84.08;101020.84;4996148;28;96548;-28
2023/10/14 05:22:10;;;;;;;1.55;0.20;;;;;;;12.39;84.50;101039.22;4995189;28;96868;-28
2023/10/14 05:24:28;;;;;;;1.70;0.30;;;;;;;12.38;84.69;101039.34;4994710;28;98808;-28
2023/10/14 05:26:59;;;;;;;0.73;0.43;;;;;;;12.31;83.93;101034.28;4995042;28;100951;-28
2023/10/14 05:29:26;;;;;;;4.30;0.50;;;;;;;12.35;84.40;101037.69;4995116;28;96620;-28
2023/10/14 05:31:52;;;;;;;5.22;0.95;;;;;;;12.29;84.34;101035.38;4995084;28;96988;-28
2023/10/14 05:34:21;;;;;;;3.45;0.50;;;;;;;12.28;84.22;101048.09;4994766;28;101462;-28
2023/10/14 05:36:52;;;;;;;1.83;0.50;;;;;;;12.28;84.57;101056.22;4996238;28;99245;-28
2023/10/14 05:39:18;;;;;;;0.80;0.50;;;;;;;12.19;85.27;101047.81;4994978;28;96774;-27
2023/10/14 05:41:44;;;;;;;1.63;0.80;;;;;;;12.25;85.30;101056.44;4994907;28;96897;-27
2023/10/14 05:44:11;;;;;;;3.63;0.35;;;;;;;12.28;85.14;101064.38;4993892;28;101409;-28
2023/10/14 05:46:36;;;;;;;0.65;0.30;;;;;;;12.25;84.88;101056.44;4994155;28;100848;-28
2023/10/14 05:49:02;;;;;;;1.85;0.73;;;;;;;12.20;84.94;101065.84;4996225;28;96506;-27
2023/10/14 05:51:27;;;;;;;2.83;0.70;;;;;;;12.25;85.44;101074.56;4996280;28;96771;-30
2023/10/14 05:53:52;;;;;;;1.75;0.50;;;;;;;12.25;85.29;101077.28;4996016;28;97907;-28
2023/10/14 05:56:19;;;;;;;0.32;0.28;;;;;;;12.21;84.82;101082.03;4996217;28;98811;-28
2023/10/14 05:58:45;;;;;;;5.05;0.98;;;;;;;12.24;84.72;101092.69;4995871;28;96645;-28
2023/10/14 06:01:13;;;;;;;1.08;0.38;;;;;;;12.27;85.12;101095.22;4994968;28;96887;-28
2023/10/14 06:03:41;;;;;;;4.72;0.63;;;;;;;12.22;84.41;101091.94;4994426;28;99848;-29
2023/10/14 06:06:10;;;;;;;1.70;0.50;;;;;;;12.24;84.39;101100.84;4994151;28;101084;-29
2023/10/14 06:08:36;;;;;;;2.83;0.68;;;;;;;12.22;84.61;101104.63;4994097;28;96828;-28
2023/10/14 06:11:03;;;;;;;2.22;0.40;;;;;;;12.25;84.41;101116.19;4995161;28;96814;-28
2023/10/14 06:13:29;;;;;;;1.35;0.57;;;;;;;12.25;85.36;101115.28;4993968;28;101189;-28
2023/10/14 06:15:54;;;;;;;4.97;0.85;;;;;;;12.25;84.82;101129.78;4995614;28;97850;-28
2023/10/14 06:18:19;;;;;;;3.33;0.52;;;;;;;12.21;83.01;101135.50;4995470;28;96641;-28
2023/10/14 06:20:49;;;;;;;5.10;0.85;;;;;;;12.13;83.21;101127.81;4995466;28;96838;-28
2023/10/14 06:23:14;;;;;;;2.50;0.65;;;;;;;12.16;82.11;101134.94;4994059;28;100748;-27
2023/10/14 06:25:40;;;;;;;0.52;0.22;;;;;;;12.14;82.89;101134.16;4996228;28;97222;-27
2023/10/14 06:28:07;;;;;;;3.17;0.60;;;;;;;12.14;84.15;101129.56;4995757;28;96724;-27
2023/10/14 06:30:33;;;;;;;7.70;0.80;;;;;;;12.16;83.55;101141.22;4994332;28;96913;-28
2023/10/14 06:33:03;;;;;;;0.57;0.30;;;;;;;12.15;82.84;101152.16;4993345;28;101330;-28
2023/10/14 06:35:31;;;;;;;3.30;0.80;;;;;;;12.09;83.46;101154.31;4995086;28;98643;-28
2023/10/14 06:37:58;;;;;;;1.35;0.57;;;;;;;12.09;81.45;101165.16;4994046;28;96536;-28
2023/10/14 06:40:24;;;;;;;2.75;0.52;;;;;;;12.09;83.00;101165.16;4993869;28;96876;-28
2023/10/14 06:42:50;;;;;;;1.25;0.50;;;;;;;12.14;82.91;101170.31;4995157;28;98407;-28
2023/10/14 06:45:18;;;;;;;2.67;0.55;;;;;;;12.07;83.12;101166.25;4992893;28;98834;-28
2023/10/14 06:47:57;;;;;;;0.57;0.05;;;;;;;12.08;82.79;101177.00;4993911;28;96655;-28
2023/10/14 06:50:25;;;;;;;3.00;0.75;;;;;;;12.10;83.03;101183.19;4995833;28;96705;-28
2023/10/14 06:53:01;;;;;;;1.20;0.57;;;;;;;12.13;83.14;101183.97;4993623;28;101392;-28
2023/10/14 06:55:39;;;;;;;2.50;0.40;;;;;;;12.16;83.37;101197.38;4993483;28;101007;-28
2023/10/14 06:58:12;;;;;;;2.97;0.60;;;;;;;12.14;81.88;101196.59;4994998;28;96543;-27
2023/10/14 07:00:40;;;;;;;7.15;0.98;;;;;;;12.15;81.46;101214.63;4993715;28;96555;-28
2023/10/14 07:03:12;;;;;;;3.53;0.82;;;;;;;12.15;81.77;101223.63;4993439;28;101063;-28
2023/10/14 07:05:57;;;;;;;1.90;0.28;;;;;;;12.13;82.42;101222.84;4993337;28;101363;-27
2023/10/14 07:08:31;;;;;;;2.97;0.73;;;;;;;12.16;81.75;101236.28;4995021;28;96700;-28
2023/10/14 07:10:56;;;;;;;3.03;0.47;;;;;;;12.20;81.58;101236.94;4994919;28;97140;-27
2023/10/14 07:13:23;;;;;;;1.25;0.28;;;;;;;12.25;82.34;101242.94;4994772;28;98042;-28
2023/10/14 07:15:50;;;;;;;2.47;0.47;;;;;;;12.29;82.32;101234.50;4993565;28;100941;-28
2023/10/14 07:18:22;;;;;;;3.13;0.55;;;;;;;12.29;81.73;101241.81;4994830;28;96576;-28
2023/10/14 07:20:56;;;;;;;1.60;0.30;;;;;;;12.29;82.66;101239.94;4994999;28;96485;-27
2023/10/14 07:23:21;;;;;;;3.45;0.80;;;;;;;12.36;81.81;101242.28;4992823;28;101043;-28
2023/10/14 07:25:47;;;;;;;4.88;0.38;;;;;;;12.29;81.56;101236.38;4994688;28;97338;-28
2023/10/14 07:28:15;;;;;;;1.58;0.22;;;;;;;12.42;81.86;101252.75;4994625;28;96601;-34
2023/10/14 07:30:48;;;;;;;2.67;0.70;;;;;;;12.36;81.42;101247.72;4994742;28;96911;-29
2023/10/14 07:33:15;;;;;;;0.85;0.32;;;;;;;12.43;80.14;101262.69;4994436;28;99714;-28
2023/10/14 07:35:40;;;;;;;1.88;0.75;;;;;;;12.47;79.63;101264.25;4993031;28;100962;-28
2023/10/14 07:38:06;;;;;;;2.47;0.60;;;;;;;12.49;79.38;101268.59;4994839;28;96535;-28
2023/10/14 07:40:34;;;;;;;3.20;0.77;;;;;;;12.53;79.97;101272.84;4995028;28;96846;-29
2023/10/14 07:43:10;;;;;;;1.85;0.73;;;;;;;12.54;79.32;101279.19;4992638;28;99070;-28
2023/10/14 07:45:42;;;;;;;1.23;0.50;;;;;;;12.59;79.30;101285.19;4993958;28;97823;-28
2023/10/14 07:48:09;;;;;;;2.40;0.28;;;;;;;12.65;79.29;101292.94;4994167;28;96704;-28
2023/10/14 07:50:47;;;;;;;2.17;0.65;;;;;;;12.69;79.07;101293.63;4994379;28;96779;-28
2023/10/14 07:53:14;;;;;;;1.25;0.40;;;;;;;12.69;77.54;101305.38;4994193;28;99501;-28
2023/10/14 07:55:41;;;;;;;3.17;0.50;;;;;;;12.80;77.17;101306.53;4992423;28;100729;-27
2023/10/14 07:58:10;;;;;;;4.45;0.95;;;;;;;12.88;77.23;101306.94;4992991;28;97137;-28
2023/10/14 08:00:40;;;;;;;7.40;0.90;;;;;;;13.00;76.34;101308.88;4994299;28;96841;-28
2023/10/14 08:03:14;;;;;;;0.50;0.20;;;;;;;13.16;76.11;101319.63;4992744;28;101120;-28
2023/10/14 08:05:41;;;;;;;3.08;0.68;;;;;;;13.25;75.74;101305.44;4993407;28;101121;-27
2023/10/14 08:08:09;;;;;;;5.47;0.68;;;;;;;13.36;75.76;101307.47;4994344;28;96670;-29
2023/10/14 08:10:42;;;;;;;0.25;0.10;;;;;;;13.53;74.18;101322.69;4992876;28;96870;-27
2023/10/14 08:13:21;;;;;;;2.78;0.65;;;;;;;13.54;74.77;101311.72;4993320;28;99425;-28
2023/10/14 08:15:50;;;;;;;2.50;0.43;;;;;;;13.59;73.06;101325.88;4992618;28;100960;-28
2023/10/14 08:18:25;;;;;;;1.92;0.55;;;;;;;13.73;73.24;101340.41;4992772;28;96567;-28
2023/10/14 08:20:53;;;;;;;1.95;0.43;;;;;;;13.76;73.06;101351.09;4994079;28;96688;-29
2023/10/14 08:23:23;;;;;;;3.42;0.75;;;;;;;13.75;72.88;101341.16;4992276;28;99453;-28
2023/10/14 08:25:54;;;;;;;1.15;0.40;;;;;;;13.77;72.76;101356.44;4992473;28;101041;-29
2023/10/14 08:28:21;;;;;;;1.77;0.55;;;;;;;13.77;72.11;101356.44;4991891;28;96722;-31
2023/10/14 08:30:46;;;;;;;2.75;0.35;;;;;;;13.78;73.09;101360.03;4991867;28;96844;-29
2023/10/14 08:33:12;;;;;;;1.13;0.30;;;;;;;13.76;72.70;101359.28;4994582;28;98459;-27
2023/10/14 08:35:42;;;;;;;1.65;0.40;;;;;;;13.71;72.69;101369.59;4995460;28;101045;-28
2023/10/14 08:38:12;;;;;;;0.47;0.20;;;;;;;13.62;73.00;101356.59;4995414;28;96536;-28
2023/10/14 08:40:39;;;;;;;2.10;0.50;;;;;;;13.62;72.57;101370.22;4995384;28;97140;-29
2023/10/14 08:43:08;;;;;;;4.75;0.52;;;;;;;13.60;71.58;101365.72;4993031;28;100788;-30
2023/10/14 08:45:35;;;;;;;0.98;0.43;;;;;;;13.61;72.73;101374.78;4992501;28;101429;-30
2023/10/14 08:48:02;;;;;;;0.52;0.20;;;;;;;13.54;71.41;101382.47;4993008;28;97147;-28
2023/10/14 08:50:33;;;;;;;2.15;0.55;;;;;;;13.47;71.12;101375.69;4993087;28;97326;-32
2023/10/14 08:53:03;;;;;;;;;;;;;;;13.54;72.37;101382.47;4993480;28;98993;-30
2023/10/14 08:55:32;;;;;;;1.35;0.22;;;;;;;13.57;71.44;101382.25;4996086;28;99463;-28
2023/10/14 08:58:02;;;;;;;2.17;0.47;;;;;;;13.58;71.00;101384.00;4996717;28;96682;-27
2023/10/14 09:00:29;;;;;;;1.15;0.30;;;;;;;13.69;71.50;101391.47;4995492;28;96856;-28
2023/10/14 09:02:57;;;;;;;2.50;0.60;;;;;;;13.75;73.04;101390.19;4996156;28;99393;-27
2023/10/14 09:05:26;;;;;;;2.22;0.47;;;;;;;13.87;73.68;101385.78;4995277;28;100809;-29
2023/10/14 09:07:55;;;;;;;0.68;0.30;;;;;;;13.99;69.34;101409.44;4995444;28;96588;-27
2023/10/14 09:10:24;;;;;;;5.22;0.60;;;;;;;14.02;70.71;101401.97;4995396;28;96856;-28
2023/10/14 09:13:00;;;;;;;1.80;0.40;;;;;;;14.18;69.69;101414.53;4995048;28;101285;-28
2023/10/14 09:15:30;;;;;;;4.97;0.88;;;;;;;14.28;71.36;101415.69;4995089;28;101121;-28
2023/10/14 09:17:56;;;;;;;1.20;0.40;;;;;;;14.40;70.30;101431.19;4995248;28;96602;-27
2023/10/14 09:20:36;;;;;;;1.98;0.43;;;;;;;14.40;68.87;101413.97;4995643;28;96837;-28
2023/10/14 09:23:44;;;;;;;0.93;0.50;;;;;;;14.39;68.66;101437.59;4994792;28;101235;-28
2023/10/14 09:26:09;;;;;;;0.93;0.35;;;;;;;14.14;67.95;101434.81;4996237;28;99761;-28
2023/10/14 09:28:40;;;;;;;1.35;0.50;;;;;;;14.22;68.81;101418.81;4996206;28;96878;-28
2023/10/14 09:31:07;;;;;;;2.22;0.60;;;;;;;14.24;69.10;101436.81;4996816;28;96575;-28
2023/10/14 09:33:44;;;;;;;2.53;0.57;;;;;;;14.18;68.18;101439.06;4996314;28;98067;-28
2023/10/14 09:36:11;;;;;;;2.08;0.47;;;;;;;14.31;68.09;101434.53;4996462;28;97828;-28
2023/10/14 09:38:41;;;;;;;1.75;0.50;;;;;;;14.54;66.55;101440.28;4996208;28;97197;-28
2023/10/14 09:41:10;;;;;;;1.30;0.40;;;;;;;14.70;66.96;101440.97;4994974;28;97098;-28
2023/10/14 09:43:42;;;;;;;2.08;0.32;;;;;;;14.77;66.12;101435.97;4995454;28;99753;-28
2023/10/14 09:46:12;;;;;;;3.10;0.47;;;;;;;14.98;65.26;101449.97;4993622;28;99149;-28
2023/10/14 09:48:39;;;;;;;1.48;0.25;;;;;;;15.15;65.41;101451.50;4994500;28;96660;-28
2023/10/14 09:51:08;;;;;;;0.80;0.35;;;;;;;15.37;66.45;101456.28;4994858;28;96903;-28
2023/10/14 09:53:34;;;;;;;1.95;0.50;;;;;;;15.44;63.15;101447.53;4992703;28;99300;-28
2023/10/14 09:56:07;;;;;;;2.92;0.40;;;;;;;15.67;65.77;101464.13;4974618;28;101296;-28
2023/10/14 09:58:41;;;;;;;4.55;0.50;;;;;;;15.65;62.69;101466.09;4974702;28;96772;-28
2023/10/14 10:01:09;;;;;;;1.38;0.40;;;;;;;15.23;64.47;101454.53;4975864;28;96742;-28
2023/10/14 10:03:45;;;;;;;1.80;0.45;;;;;;;14.94;64.61;101467.53;4974303;28;101355;-28
2023/10/14 10:06:20;;;;;;;1.38;0.45;;;;;;;14.86;64.10;101482.59;4975855;28;99491;-28
2023/10/14 10:08:52;;;;;;;0.55;0.17;;;;;;;14.85;65.58;101474.53;4974405;28;96612;-28
2023/10/14 10:11:23;;;;;;;;;;;;;;;14.76;66.10;101489.66;4973881;28;96780;-28
2023/10/14 10:13:53;;;;;;;3.75;0.50;;;;;;;14.89;66.85;101477.91;4972161;28;99980;-32
2023/10/14 10:16:22;;;;;;;1.88;0.30;;;;;;;15.24;65.83;101483.59;4971265;28;100862;-30
2023/10/14 10:18:57;;;;;;;1.23;0.40;;;;;;;15.39;64.29;101487.09;4971204;28;96800;-31
2023/10/14 10:21:32;;;;;;;9.07;1.05;;;;;;;15.56;65.35;101488.59;4973275;28;97189;-28
2023/10/14 10:24:17;;;;;;;5.68;0.60;;;;;;;15.58;62.54;101486.63;4971693;28;101120;-31
2023/10/14 10:27:05;;;;;;;1.42;0.63;;;;;;;15.38;62.31;101508.06;4974852;28;97956;-27
2023/10/14 10:29:45;;;;;;;2.58;0.35;;;;;;;15.40;63.59;101508.84;4975678;28;96547;-27
2023/10/14 10:32:21;;;;;;;1.27;0.32;;;;;;;15.47;63.15;101501.09;4975948;28;96533;-28
2023/10/14 10:35:05;;;;;;;5.47;0.55;;;;;;;15.54;62.68;101504.22;4973806;28;101313;-28
2023/10/14 10:37:34;;;;;;;1.77;0.47;;;;;;;15.64;63.55;101503.47;4975498;28;97298;-28
2023/10/14 10:40:05;;;;;;;4.43;0.45;;;;;;;15.65;63.52;101499.72;4972675;28;96780;-28
2023/10/14 10:42:31;;;;;;;2.83;0.73;;;;;;;15.63;62.76;101518.06;4979452;28;96781;-29
2023/10/14 10:44:57;;;;;;;1.60;0.50;;;;;;;15.46;62.31;101512.97;4992484;28;99087;-28
2023/10/14 10:47:22;;;;;;;0.75;0.40;;;;;;;15.15;60.99;101511.53;4995002;28;97077;-28
2023/10/14 10:49:56;;;;;;;5.80;0.73;;;;;;;15.22;62.89;101512.84;4995464;28;96551;-28
2023/10/14 10:52:24;;;;;;;1.15;0.47;;;;;;;15.18;61.05;101516.78;4994981;28;97584;-28
2023/10/14 10:54:51;;;;;;;2.10;0.55;;;;;;;15.47;61.23;101512.88;4991129;28;101447;-28
2023/10/14 10:57:17;;;;;;;1.63;0.50;;;;;;;15.61;59.69;101514.63;4992109;28;101171;-28
2023/10/14 10:59:43;;;;;;;1.52;0.45;;;;;;;15.62;59.80;101516.34;4991396;28;97141;-28
2023/10/14 11:02:10;;;;;;;1.45;0.30;;;;;;;15.73;60.48;101512.00;4973886;28;97028;-27
2023/10/14 11:04:35;;;;;;;3.17;0.93;;;;;;;16.03;59.34;101514.34;4971116;28;101292;-28
2023/10/14 11:07:01;;;;;;;2.15;0.73;;;;;;;16.04;60.67;101527.91;4972690;28;97292;-31
2023/10/14 11:09:30;;;;;;;1.40;0.20;;;;;;;15.87;59.39;101515.50;4972671;28;97028;-30
2023/10/14 11:12:00;;;;;;;3.00;0.63;;;;;;;15.52;60.89;101526.19;4971489;28;97372;-27
2023/10/14 11:14:29;;;;;;;1.48;0.65;;;;;;;15.32;60.17;101535.78;4972560;28;101517;-27
2023/10/14 11:16:58;;;;;;;3.65;0.40;;;;;;;15.27;61.93;101537.97;4974898;28;99322;-27
2023/10/14 11:19:31;;;;;;;2.15;0.63;;;;;;;15.49;61.79;101542.78;4974847;28;96634;-27
2023/10/14 11:21:58;;;;;;;2.15;0.55;;;;;;;15.85;61.64;101527.47;4994901;28;96870;-27
2023/10/14 11:24:24;;;;;;;1.58;0.40;;;;;;;16.12;61.41;101539.13;4993058;28;100960;-27
2023/10/14 11:26:53;;;;;;;4.03;0.40;;;;;;;16.36;60.49;101538.28;4993539;28;100008;-28
2023/10/14 11:29:23;;;;;;;1.40;0.65;;;;;;;16.50;59.65;101531.78;4978231;28;96646;-27
2023/10/14 11:31:53;;;;;;;2.70;0.47;;;;;;;16.56;58.36;101540.41;4974738;28;96827;-32
2023/10/14 11:34:20;;;;;;;3.90;0.43;;;;;;;16.67;58.67;101533.25;4998795;28;99405;-28
2023/10/14 11:36:48;;;;;;;1.80;0.40;;;;;;;16.46;59.19;101541.22;4982529;28;102710;-29
2023/10/14 11:39:16;;;;;;;4.63;0.77;;;;;;;16.04;59.17;101555.22;4973408;28;98505;-28
2023/10/14 11:41:41;;;;;;;2.90;0.50;;;;;;;15.58;61.13;101542.13;4973397;28;96965;-27
2023/10/14 11:44:07;;;;;;;4.20;0.80;;;;;;;15.56;60.28;101560.47;4974166;28;99507;-28
2023/10/14 11:46:38;;;;;;;5.32;0.77;;;;;;;15.88;60.29;101558.19;4973896;28;97762;-28
2023/10/14 11:49:09;;;;;;;2.50;0.47;;;;;;;15.97;57.78;101558.50;4973171;28;96848;-34
2023/10/14 11:51:43;;;;;;;1.83;0.57;;;;;;;16.23;58.46;101559.31;4989777;28;96796;-29
2023/10/14 11:54:13;;;;;;;1.80;0.30;;;;;;;16.25;55.49;101552.75;4987742;28;99445;-27